createdAt,value
2022-07-31T00:00:23.940Z,100182.09
2022-07-31T00:02:51.664Z,100189.94
2022-07-31T00:05:19.426Z,100194.31
2022-07-31T00:07:47.146Z,100188.25
2022-07-31T00:10:15.051Z,100190.00
2022-07-31T00:12:44.025Z,100191.69
2022-07-31T00:15:12.949Z,100197.75
2022-07-31T00:17:41.433Z,100190.84
2022-07-31T00:20:13.278Z,100188.25
2022-07-31T00:22:40.993Z,100190.06
2022-07-31T00:25:10.062Z,100191.84
2022-07-31T00:27:37.693Z,100184.94
2022-07-31T00:30:08.626Z,100188.44
2022-07-31T00:32:36.336Z,100182.44
2022-07-31T00:35:04.017Z,100183.34
2022-07-31T00:37:31.804Z,100183.41
2022-07-31T00:39:59.452Z,100186.00
2022-07-31T00:42:27.553Z,100188.63
2022-07-31T00:44:55.781Z,100184.31
2022-07-31T00:47:25.637Z,100177.41
2022-07-31T00:49:53.596Z,100185.25
2022-07-31T00:52:30.915Z,100180.91
2022-07-31T00:55:01.556Z,100183.53
2022-07-31T00:57:29.389Z,100175.75
2022-07-31T00:59:57.239Z,100181.88
2022-07-31T01:02:26.343Z,100177.53
2022-07-31T01:04:54.063Z,100179.31
2022-07-31T01:07:21.767Z,100175.00
2022-07-31T01:09:50.605Z,100178.50
2022-07-31T01:12:26.995Z,100180.25
2022-07-31T01:14:59.007Z,100186.38
2022-07-31T01:17:32.078Z,100179.47
2022-07-31T01:20:00.842Z,100184.66
2022-07-31T01:22:46.556Z,100188.19
2022-07-31T01:25:37.786Z,100189.06
2022-07-31T01:28:33.186Z,100191.69
2022-07-31T01:34:02.753Z,100192.59
2022-07-31T01:36:34.682Z,100196.97
2022-07-31T01:39:03.764Z,100191.75
2022-07-31T01:41:41.870Z,100185.66
2022-07-31T01:44:14.230Z,100186.56
2022-07-31T01:46:44.697Z,100190.94
2022-07-31T01:49:14.674Z,100192.69
2022-07-31T01:51:45.132Z,100188.34
2022-07-31T01:54:14.548Z,100186.59
2022-07-31T01:56:43.169Z,100187.50
2022-07-31T01:59:20.640Z,100185.75
2022-07-31T02:02:16.928Z,100187.50
2022-07-31T02:04:47.019Z,100184.00
2022-07-31T02:07:16.423Z,100188.38
2022-07-31T02:09:57.905Z,100187.50
2022-07-31T02:12:31.759Z,100181.41
2022-07-31T02:15:02.270Z,100175.34
2022-07-31T02:17:31.709Z,100184.06
2022-07-31T02:20:18.247Z,100172.78
2022-07-31T02:22:46.188Z,100177.13
2022-07-31T02:25:13.920Z,100182.31
2022-07-31T02:27:57.040Z,100179.69
2022-07-31T02:30:39.689Z,100177.97
2022-07-31T02:33:14.646Z,100181.44
2022-07-31T02:35:45.418Z,100180.56
2022-07-31T02:38:22.960Z,100180.53
2022-07-31T02:40:56.375Z,100184.88
2022-07-31T02:43:25.873Z,100184.03
2022-07-31T02:45:57.631Z,100182.31
2022-07-31T02:48:27.945Z,100185.78
2022-07-31T02:50:59.852Z,100179.69
2022-07-31T02:53:28.066Z,100177.09
2022-07-31T02:56:01.046Z,100177.09
2022-07-31T02:58:32.893Z,100181.44
2022-07-31T03:01:01.778Z,100163.22
2022-07-31T03:03:34.345Z,100168.41
2022-07-31T03:06:02.022Z,100163.19
2022-07-31T03:08:29.891Z,100165.81
2022-07-31T03:11:01.499Z,100161.50
2022-07-31T03:13:31.417Z,100156.28
2022-07-31T03:15:59.750Z,100162.34
2022-07-31T03:18:28.330Z,100159.72
2022-07-31T03:20:57.752Z,100163.19
2022-07-31T03:23:27.345Z,100158.88
2022-07-31T03:26:03.265Z,100161.47
2022-07-31T03:28:31.030Z,100160.59
2022-07-31T03:30:58.653Z,100159.72
2022-07-31T03:33:29.864Z,100152.75
2022-07-31T03:35:58.980Z,100159.72
2022-07-31T03:38:39.077Z,100164.06
2022-07-31T03:41:18.483Z,100166.66
2022-07-31T03:43:48.643Z,100166.63
2022-07-31T03:46:22.922Z,100176.22
2022-07-31T03:48:52.641Z,100172.72
2022-07-31T03:51:23.181Z,100170.13
2022-07-31T03:53:51.544Z,100171.03
2022-07-31T03:56:39.142Z,100174.47
2022-07-31T03:59:07.557Z,100168.41
2022-07-31T04:01:57.436Z,100178.81
2022-07-31T04:04:35.393Z,100177.91
2022-07-31T04:07:06.909Z,100176.19
2022-07-31T04:09:34.841Z,100186.56
2022-07-31T04:12:05.431Z,100177.03
2022-07-31T04:14:33.323Z,100185.69
2022-07-31T04:17:01.011Z,100171.84
2022-07-31T04:19:30.915Z,100173.56
2022-07-31T04:21:58.784Z,100167.50
2022-07-31T04:24:28.502Z,100169.22
2022-07-31T04:27:17.397Z,100168.38
2022-07-31T04:29:45.847Z,100166.66
2022-07-31T04:32:13.750Z,100177.94
2022-07-31T04:34:53.774Z,100177.06
2022-07-31T04:37:21.596Z,100175.34
2022-07-31T04:39:50.620Z,100185.75
2022-07-31T04:42:18.422Z,100179.69
2022-07-31T04:44:46.108Z,100177.97
2022-07-31T04:47:14.031Z,100178.84
2022-07-31T04:49:44.715Z,100181.44
2022-07-31T04:52:15.557Z,100183.16
2022-07-31T04:54:46.156Z,100186.66
2022-07-31T04:57:21.386Z,100190.09
2022-07-31T04:59:59.609Z,100194.44
2022-07-31T05:02:31.489Z,100191.84
2022-07-31T05:04:59.202Z,100195.34
2022-07-31T05:07:32.816Z,100197.06
2022-07-31T05:10:05.443Z,100198.81
2022-07-31T05:12:34.980Z,100197.91
2022-07-31T05:15:02.681Z,100200.50
2022-07-31T05:17:30.369Z,100190.94
2022-07-31T05:20:19.240Z,100189.19
2022-07-31T05:23:06.496Z,100188.31
2022-07-31T05:25:52.785Z,100191.78
2022-07-31T05:28:30.111Z,100197.81
2022-07-31T05:30:58.809Z,100185.63
2022-07-31T05:33:28.373Z,100184.75
2022-07-31T05:35:56.511Z,100186.41
2022-07-31T05:38:24.320Z,100189.00
2022-07-31T05:41:33.248Z,100181.97
2022-07-31T05:44:19.768Z,100176.72
2022-07-31T05:46:48.063Z,100190.56
2022-07-31T05:49:15.923Z,100182.72
2022-07-31T05:51:46.492Z,100188.75
2022-07-31T05:54:14.233Z,100191.25
2022-07-31T05:57:32.915Z,100190.25
2022-07-31T06:00:03.832Z,100186.72
2022-07-31T06:02:39.411Z,100184.91
2022-07-31T06:05:17.209Z,100191.88
2022-07-31T06:07:51.844Z,100192.69
2022-07-31T06:10:20.495Z,100188.31
2022-07-31T06:12:48.516Z,100189.09
2022-07-31T06:15:17.653Z,100202.09
2022-07-31T06:17:45.905Z,100195.03
2022-07-31T06:20:24.694Z,100187.97
2022-07-31T06:22:53.066Z,100185.22
2022-07-31T06:25:20.800Z,100187.69
2022-07-31T06:27:55.131Z,100194.56
2022-07-31T06:30:29.333Z,100190.09
2022-07-31T06:32:56.961Z,100193.50
2022-07-31T06:35:25.070Z,100189.06
2022-07-31T06:38:19.648Z,100189.88
2022-07-31T06:41:33.261Z,100196.72
2022-07-31T06:44:21.197Z,100189.59
2022-07-31T06:47:13.687Z,100189.41
2022-07-31T06:50:08.410Z,100188.34
2022-07-31T06:52:41.569Z,100185.66
2022-07-31T06:55:10.119Z,100182.88
2022-07-31T06:57:38.806Z,100187.91
2022-07-31T07:00:15.157Z,100193.81
2022-07-31T07:02:49.997Z,100190.03
2022-07-31T07:05:17.997Z,100189.81
2022-07-31T07:07:48.818Z,100187.00
2022-07-31T07:10:16.644Z,100190.41
2022-07-31T07:12:59.436Z,100188.59
2022-07-31T07:15:28.998Z,100184.19
2022-07-31T07:17:58.100Z,100192.09
2022-07-31T07:20:44.521Z,100185.91
2022-07-31T07:23:12.956Z,100186.69
2022-07-31T07:25:53.735Z,100186.63
2022-07-31T07:28:30.562Z,100188.25
2022-07-31T07:31:01.580Z,100186.25
2022-07-31T07:33:41.215Z,100187.84
2022-07-31T07:36:22.834Z,100185.94
2022-07-31T07:39:01.802Z,100182.38
2022-07-31T07:41:30.857Z,100183.97
2022-07-31T07:43:59.815Z,100179.38
2022-07-31T07:46:29.782Z,100175.66
2022-07-31T07:49:02.443Z,100177.31
2022-07-31T07:52:00.447Z,100175.25
2022-07-31T07:54:48.326Z,100176.81
2022-07-31T07:57:48.101Z,100169.59
2022-07-31T08:00:16.576Z,100164.97
2022-07-31T08:03:46.883Z,100161.28
2022-07-31T08:05:35.788Z,100159.34
2022-07-31T08:08:05.633Z,100159.25
2022-07-31T08:10:40.977Z,100161.72
2022-07-31T08:13:16.512Z,100158.94
2022-07-31T08:16:02.704Z,100153.41
2022-07-31T08:18:34.189Z,100159.16
2022-07-31T08:21:03.261Z,100145.56
2022-07-31T08:23:30.908Z,100146.06
2022-07-31T08:25:58.726Z,100144.75
2022-07-31T08:28:26.933Z,100147.75
2022-07-31T08:30:54.980Z,100145.47
2022-07-31T08:33:24.278Z,100144.09
2022-07-31T08:35:56.127Z,100142.84
2022-07-31T08:38:25.332Z,100143.00
2022-07-31T08:41:14.525Z,100141.44
2022-07-31T08:44:00.099Z,100135.22
2022-07-31T08:46:31.492Z,100136.31
2022-07-31T08:49:01.961Z,100140.41
2022-07-31T08:51:31.830Z,100133.38
2022-07-31T08:54:16.993Z,100143.25
2022-07-31T08:56:46.318Z,100136.47
2022-07-31T08:59:17.390Z,100142.31
2022-07-31T09:01:45.851Z,100138.75
2022-07-31T09:04:13.632Z,100141.81
2022-07-31T09:06:42.677Z,100135.59
2022-07-31T09:09:10.460Z,100129.47
2022-07-31T09:11:48.965Z,100132.06
2022-07-31T09:14:36.297Z,100132.28
2022-07-31T09:17:09.308Z,100132.84
2022-07-31T09:19:52.651Z,100125.03
2022-07-31T09:22:29.512Z,100117.31
2022-07-31T09:25:12.850Z,100118.03
2022-07-31T09:27:42.535Z,100108.09
2022-07-31T09:30:11.668Z,100100.03
2022-07-31T09:32:58.171Z,100115.00
2022-07-31T09:35:49.804Z,100091.84
2022-07-31T09:38:18.121Z,100095.31
2022-07-31T09:41:53.395Z,100091.03
2022-07-31T09:44:25.987Z,100094.91
2022-07-31T09:46:54.324Z,100107.09
2022-07-31T09:49:31.480Z,100092.75
2022-07-31T09:52:00.431Z,100090.81
2022-07-31T09:54:31.248Z,100090.63
2022-07-31T09:57:12.239Z,100095.47
2022-07-31T09:59:52.363Z,100082.66
2022-07-31T10:02:21.255Z,100088.59
2022-07-31T10:04:52.195Z,100084.63
2022-07-31T10:07:32.205Z,100079.97
2022-07-31T10:10:13.361Z,100086.56
2022-07-31T10:12:56.443Z,100089.44
2022-07-31T10:15:27.348Z,100086.66
2022-07-31T10:18:14.022Z,100086.34
2022-07-31T10:21:08.512Z,100073.53
2022-07-31T10:23:51.089Z,100085.13
2022-07-31T10:26:21.406Z,100084.28
2022-07-31T10:28:50.505Z,100074.47
2022-07-31T10:31:20.158Z,100079.78
2022-07-31T10:33:48.529Z,100076.81
2022-07-31T10:36:37.751Z,100068.56
2022-07-31T10:39:32.343Z,100061.47
2022-07-31T10:42:13.780Z,100051.59
2022-07-31T10:44:46.454Z,100045.16
2022-07-31T10:47:26.088Z,100050.34
2022-07-31T10:50:21.782Z,100046.94
2022-07-31T10:53:21.493Z,100050.16
2022-07-31T10:56:13.841Z,100038.03
2022-07-31T10:59:13.012Z,100022.25
2022-07-31T11:02:00.520Z,100021.31
2022-07-31T11:04:42.341Z,100047.53
2022-07-31T11:07:19.744Z,100032.03
2022-07-31T11:10:10.013Z,100020.06
2022-07-31T11:13:04.293Z,100012.19
2022-07-31T11:16:04.405Z,100019.91
2022-07-31T11:19:06.209Z,100021.91
2022-07-31T11:21:38.929Z,100016.09
2022-07-31T11:24:14.306Z,100010.44
2022-07-31T11:26:52.435Z,100008.22
2022-07-31T11:30:01.217Z,100015.56
2022-07-31T11:32:16.668Z,100004.78
2022-07-31T11:34:47.483Z,100008.53
2022-07-31T11:37:20.423Z,100009.78
2022-07-31T11:39:51.382Z,100022.00
2022-07-31T11:42:25.330Z,100018.34
2022-07-31T11:45:10.793Z,100008.97
2022-07-31T11:48:12.293Z,100009.88
2022-07-31T11:50:30.535Z,99997.84
2022-07-31T11:53:06.837Z,99986.22
2022-07-31T11:55:45.382Z,99972.63
2022-07-31T11:58:13.103Z,99975.53
2022-07-31T12:00:46.711Z,99980.88
2022-07-31T12:03:14.444Z,99981.91
2022-07-31T12:05:46.392Z,99969.19
2022-07-31T12:08:15.910Z,99964.00
2022-07-31T12:10:44.208Z,99977.75
2022-07-31T12:13:16.066Z,99942.28
2022-07-31T12:15:58.662Z,99949.06
2022-07-31T12:18:27.715Z,99946.69
2022-07-31T12:20:57.597Z,99948.31
2022-07-31T12:23:40.608Z,99943.69
2022-07-31T12:26:11.513Z,99938.41
2022-07-31T12:28:39.316Z,99944.75
2022-07-31T12:31:07.003Z,99946.94
2022-07-31T12:33:41.980Z,99930.84
2022-07-31T12:36:14.260Z,99946.69
2022-07-31T12:38:45.080Z,99946.53
2022-07-31T12:41:13.814Z,99925.44
2022-07-31T12:43:43.859Z,99930.91
2022-07-31T12:46:20.040Z,99919.03
2022-07-31T12:48:47.795Z,99913.09
2022-07-31T12:51:16.775Z,99923.91
2022-07-31T12:53:45.750Z,99921.59
2022-07-31T12:56:13.444Z,99910.06
2022-07-31T12:58:41.036Z,99913.19
2022-07-31T13:01:08.715Z,99899.66
2022-07-31T13:03:45.660Z,99902.34
2022-07-31T13:06:14.397Z,99912.03
2022-07-31T13:08:43.640Z,99905.72
2022-07-31T13:11:12.596Z,99886.41
2022-07-31T13:13:40.271Z,99886.66
2022-07-31T13:16:07.991Z,99890.63
2022-07-31T13:18:35.804Z,99886.72
2022-07-31T13:21:03.434Z,99880.97
2022-07-31T13:23:31.449Z,99871.78
2022-07-31T13:26:00.606Z,99877.94
2022-07-31T13:28:29.572Z,99862.00
2022-07-31T13:30:57.233Z,99860.78
2022-07-31T13:33:24.829Z,99846.84
2022-07-31T13:35:52.606Z,99855.31
2022-07-31T13:38:20.208Z,99852.22
2022-07-31T13:41:05.305Z,99850.94
2022-07-31T13:43:34.294Z,99846.78
2022-07-31T13:46:01.898Z,99846.22
2022-07-31T13:48:29.475Z,99847.72
2022-07-31T13:50:57.067Z,99839.53
2022-07-31T13:53:24.695Z,99836.19
2022-07-31T13:55:53.819Z,99836.16
2022-07-31T13:58:21.737Z,99840.59
2022-07-31T14:00:50.723Z,99844.75
2022-07-31T14:03:18.326Z,99833.13
2022-07-31T14:05:48.095Z,99843.00
2022-07-31T14:08:32.636Z,99829.75
2022-07-31T14:11:05.159Z,99834.19
2022-07-31T14:13:43.007Z,99817.59
2022-07-31T14:16:11.973Z,99825.13
2022-07-31T14:18:39.604Z,99816.78
2022-07-31T14:21:08.379Z,99810.41
2022-07-31T14:23:40.526Z,99813.16
2022-07-31T14:26:08.622Z,99804.50
2022-07-31T14:28:36.419Z,99818.44
2022-07-31T14:31:04.486Z,99807.03
2022-07-31T14:33:33.490Z,99810.53
2022-07-31T14:36:01.084Z,99802.16
2022-07-31T14:38:28.867Z,99800.84
2022-07-31T14:40:56.719Z,99794.50
2022-07-31T14:43:24.459Z,99793.00
2022-07-31T14:45:52.415Z,99793.25
2022-07-31T14:48:20.718Z,99801.25
2022-07-31T14:50:49.752Z,99810.34
2022-07-31T14:53:17.412Z,99804.84
2022-07-31T14:55:45.075Z,99799.66
2022-07-31T14:58:12.680Z,99798.03
2022-07-31T15:00:40.335Z,99798.53
2022-07-31T15:03:08.060Z,99774.63
2022-07-31T15:06:48.809Z,99781.84
2022-07-31T15:08:25.020Z,99769.94
2022-07-31T15:10:52.598Z,99778.72
2022-07-31T15:13:20.436Z,99783.84
2022-07-31T15:15:48.438Z,99777.03
2022-07-31T15:18:16.134Z,99762.97
2022-07-31T15:20:43.829Z,99777.44
2022-07-31T15:23:11.456Z,99773.06
2022-07-31T15:25:40.489Z,99777.91
2022-07-31T15:28:08.118Z,99762.16
2022-07-31T15:30:35.780Z,99761.72
2022-07-31T15:33:03.763Z,99764.25
2022-07-31T15:35:31.644Z,99761.56
2022-07-31T15:37:59.436Z,99772.56
2022-07-31T15:40:27.385Z,99767.97
2022-07-31T15:42:56.585Z,99763.06
2022-07-31T15:45:24.345Z,99753.34
2022-07-31T15:47:52.145Z,99757.50
2022-07-31T15:50:20.575Z,99761.41
2022-07-31T15:53:13.646Z,99751.88
2022-07-31T15:55:52.850Z,99743.63
2022-07-31T15:58:32.384Z,99743.78
2022-07-31T16:01:02.256Z,99742.19
2022-07-31T16:03:50.669Z,99735.75
2022-07-31T16:06:20.860Z,99737.97
2022-07-31T16:08:55.856Z,99734.97
2022-07-31T16:11:23.561Z,99735.84
2022-07-31T16:14:12.456Z,99732.63
2022-07-31T16:16:44.195Z,99732.81
2022-07-31T16:19:13.397Z,99734.34
2022-07-31T16:21:42.920Z,99738.25
2022-07-31T16:24:10.502Z,99722.94
2022-07-31T16:26:39.988Z,99736.03
2022-07-31T16:29:09.795Z,99729.59
2022-07-31T16:31:46.543Z,99718.84
2022-07-31T16:34:14.166Z,99714.28
2022-07-31T16:36:41.722Z,99723.19
2022-07-31T16:39:19.926Z,99715.56
2022-07-31T16:41:54.587Z,99706.94
2022-07-31T16:44:22.860Z,99716.97
2022-07-31T16:46:54.944Z,99718.78
2022-07-31T16:49:35.473Z,99714.13
2022-07-31T16:52:05.273Z,99710.72
2022-07-31T16:54:32.916Z,99717.84
2022-07-31T16:57:00.528Z,99708.88
2022-07-31T16:59:28.159Z,99705.00
2022-07-31T17:02:01.114Z,99689.78
2022-07-31T17:04:29.348Z,99706.34
2022-07-31T17:06:57.217Z,99709.50
2022-07-31T17:09:25.119Z,99712.13
2022-07-31T17:11:55.440Z,99702.94
2022-07-31T17:14:25.158Z,99717.81
2022-07-31T17:16:54.552Z,99708.84
2022-07-31T17:19:36.658Z,99712.28
2022-07-31T17:22:17.899Z,99705.91
2022-07-31T17:24:50.159Z,99707.94
2022-07-31T17:27:18.473Z,99711.88
2022-07-31T17:29:46.235Z,99711.13
2022-07-31T17:32:13.865Z,99718.84
2022-07-31T17:34:45.011Z,99718.09
2022-07-31T17:37:13.143Z,99705.56
2022-07-31T17:39:40.775Z,99710.19
2022-07-31T17:42:09.396Z,99716.41
2022-07-31T17:44:37.344Z,99717.59
2022-07-31T17:47:05.569Z,99721.59
2022-07-31T17:49:34.314Z,99721.56
2022-07-31T17:52:03.391Z,99729.53
2022-07-31T17:54:32.431Z,99720.81
2022-07-31T17:57:00.540Z,99727.50
2022-07-31T17:59:28.431Z,99728.38
2022-07-31T18:02:00.012Z,99732.31
2022-07-31T18:04:28.414Z,99736.94
2022-07-31T18:06:56.145Z,99733.81
2022-07-31T18:09:25.566Z,99734.09
2022-07-31T18:11:55.044Z,99739.63
2022-07-31T18:14:24.763Z,99727.50
2022-07-31T18:16:52.740Z,99736.50
2022-07-31T18:19:21.261Z,99738.63
2022-07-31T18:21:48.951Z,99731.66
2022-07-31T18:24:16.602Z,99743.88
2022-07-31T18:26:45.793Z,99742.03
2022-07-31T18:29:13.526Z,99740.81
2022-07-31T18:31:41.193Z,99744.19
2022-07-31T18:34:09.044Z,99744.34
2022-07-31T18:36:38.843Z,99746.81
2022-07-31T18:39:07.335Z,99752.31
2022-07-31T18:41:35.025Z,99748.31
2022-07-31T18:44:04.083Z,99753.88
2022-07-31T18:46:32.964Z,99755.00
2022-07-31T18:49:01.290Z,99757.06
2022-07-31T18:51:30.634Z,99752.41
2022-07-31T18:53:58.561Z,99758.41
2022-07-31T18:56:27.065Z,99762.88
2022-07-31T18:58:55.527Z,99761.09
2022-07-31T19:01:24.776Z,99762.19
2022-07-31T19:03:53.292Z,99765.63
2022-07-31T19:06:22.569Z,99768.25
2022-07-31T19:08:51.855Z,99775.22
2022-07-31T19:11:19.853Z,99768.50
2022-07-31T19:13:47.890Z,99775.28
2022-07-31T19:16:15.819Z,99779.78
2022-07-31T19:18:49.330Z,99783.56
2022-07-31T19:21:41.119Z,99787.94
2022-07-31T19:24:07.736Z,99795.34
2022-07-31T19:26:35.464Z,99803.38
2022-07-31T19:29:03.145Z,99802.16
2022-07-31T19:31:30.799Z,99809.59
2022-07-31T19:33:59.752Z,99799.53
2022-07-31T19:36:27.448Z,99807.63
2022-07-31T19:38:55.041Z,99806.06
2022-07-31T19:41:22.724Z,99813.56
2022-07-31T19:43:50.780Z,99811.41
2022-07-31T19:46:18.779Z,99830.47
2022-07-31T19:48:47.236Z,99825.69
2022-07-31T19:51:16.336Z,99832.38
2022-07-31T19:53:44.691Z,99832.00
2022-07-31T19:56:20.170Z,99838.44
2022-07-31T19:58:49.422Z,99839.75
2022-07-31T20:01:19.848Z,99847.88
2022-07-31T20:03:47.676Z,99849.38
2022-07-31T20:06:17.758Z,99848.09
2022-07-31T20:08:45.386Z,99855.50
2022-07-31T20:11:13.351Z,99851.72
2022-07-31T20:13:41.023Z,99854.06
2022-07-31T20:16:08.656Z,99852.75
2022-07-31T20:18:36.561Z,99857.28
2022-07-31T20:21:07.713Z,99865.66
2022-07-31T20:23:38.663Z,99859.81
2022-07-31T20:26:06.992Z,99867.63
2022-07-31T20:28:34.857Z,99854.53
2022-07-31T20:31:02.634Z,99859.41
2022-07-31T20:33:30.256Z,99859.09
2022-07-31T20:35:57.897Z,99854.34
2022-07-31T20:38:25.639Z,99861.88
2022-07-31T20:40:56.112Z,99863.03
2022-07-31T20:43:25.367Z,99856.28
2022-07-31T20:45:53.610Z,99866.47
2022-07-31T20:48:24.538Z,99863.28
2022-07-31T20:50:53.266Z,99859.88
2022-07-31T20:53:21.956Z,99865.31
2022-07-31T20:55:50.338Z,99873.53
2022-07-31T20:58:19.488Z,99869.34
2022-07-31T21:00:47.609Z,99869.59
2022-07-31T21:03:15.552Z,99874.34
2022-07-31T21:05:43.839Z,99872.75
2022-07-31T21:08:12.065Z,99882.03
2022-07-31T21:10:40.623Z,99874.38
2022-07-31T21:13:08.507Z,99884.22
2022-07-31T21:15:42.010Z,99882.81
2022-07-31T21:18:12.597Z,99886.44
2022-07-31T21:20:50.649Z,99871.97
2022-07-31T21:23:22.682Z,99879.31
2022-07-31T21:25:51.209Z,99885.59
2022-07-31T21:28:19.473Z,99885.19
2022-07-31T21:30:48.623Z,99894.06
2022-07-31T21:33:17.873Z,99887.28
2022-07-31T21:35:46.511Z,99895.22
2022-07-31T21:38:15.817Z,99894.44
2022-07-31T21:40:44.183Z,99900.00
2022-07-31T21:43:16.770Z,99896.53
2022-07-31T21:45:55.262Z,99903.84
2022-07-31T21:48:27.720Z,99902.22
2022-07-31T21:50:55.925Z,99905.00
2022-07-31T21:53:23.973Z,99908.63
2022-07-31T21:55:52.065Z,99908.78
2022-07-31T21:58:19.818Z,99909.81
2022-07-31T22:00:48.879Z,99914.28
2022-07-31T22:03:16.592Z,99912.75
2022-07-31T22:06:01.731Z,99912.84
2022-07-31T22:08:29.324Z,99921.72
2022-07-31T22:10:56.972Z,99914.84
2022-07-31T22:13:24.584Z,99915.88
2022-07-31T22:15:59.891Z,99915.16
2022-07-31T22:18:30.050Z,99918.50
2022-07-31T22:20:57.967Z,99930.91
2022-07-31T22:23:26.948Z,99927.59
2022-07-31T22:25:55.306Z,99927.56
2022-07-31T22:28:23.845Z,99929.47
2022-07-31T22:30:53.781Z,99929.56
2022-07-31T22:33:21.941Z,99926.22
2022-07-31T22:36:00.274Z,99928.84
2022-07-31T22:38:30.571Z,99933.41
2022-07-31T22:40:58.644Z,99939.59
2022-07-31T22:44:10.389Z,99942.34
2022-07-31T22:46:16.380Z,99942.47
2022-07-31T22:48:45.993Z,99938.19
2022-07-31T22:51:14.963Z,99942.59
2022-07-31T22:53:43.272Z,99939.09
2022-07-31T22:56:10.905Z,99938.06
2022-07-31T22:58:38.473Z,99943.34
2022-07-31T23:01:06.156Z,99949.44
2022-07-31T23:03:35.126Z,99945.03
2022-07-31T23:06:30.749Z,99940.63
2022-07-31T23:08:53.590Z,99952.97
2022-07-31T23:11:22.671Z,99954.75
2022-07-31T23:13:50.329Z,99951.22
2022-07-31T23:16:18.191Z,99958.13
2022-07-31T23:18:47.256Z,99956.31
2022-07-31T23:21:14.918Z,99956.94
2022-07-31T23:23:49.022Z,99963.78
2022-07-31T23:26:18.343Z,99959.31
2022-07-31T23:28:45.977Z,99962.53
2022-07-31T23:31:13.577Z,99957.00
2022-07-31T23:33:41.469Z,99962.16
2022-07-31T23:36:10.521Z,99958.53
2022-07-31T23:38:38.364Z,99963.72
2022-07-31T23:41:06.114Z,99969.63
2022-07-31T23:43:32.746Z,99971.94
2022-07-31T23:46:00.436Z,99967.59
2022-07-31T23:48:29.221Z,99977.13
2022-07-31T23:50:57.860Z,99972.59
2022-07-31T23:53:26.836Z,99978.84
2022-07-31T23:55:54.456Z,99969.06
2022-07-31T23:58:22.171Z,99970.13
